Nearby METAR Reports

 

KISP - Islip, New York, USA
Distance from station: SW 4mi, 6km
Updated: Thu, 02/29/2024 9:56 pm EST
Clear
Clear
 Wind from WNW
Wind: WNW 5 mph , 7 km/h
Temperature: 32°F , 0°C
Wind Chill: 27°F , -3°C
Dew Point: 12°F , -11°C
Humidity: 44%
Barometer: 30.41 inHg , 1029.8 hPa
Clouds: Clear
Visibility: 10 miles , 16 km
2024/03/01 02:56 KISP 010256Z 30004KT 10SM CLR 00/M11 A3041 RMK AO2 SLP298 T00001111 51026
KHWV - Shirley, New York, USA
Distance from station: E 10mi, 16km
Updated: Thu, 02/29/2024 9:56 pm EST
Clear
Clear
 Wind from NW
Wind: NW 7 mph , 11 km/h
Temperature: 34°F , 1°C
Wind Chill: 28°F , -2°C
Dew Point: 12°F , -11°C
Humidity: 41%
Barometer: 30.41 inHg , 1029.8 hPa
Clouds: Clear
Visibility: 10 miles , 16 km
2024/03/01 02:56 KHWV 010256Z AUTO 32006KT 10SM CLR 01/M11 A3041 RMK AO2 SLP300 T00061111 51025
 
KFRG - Farmingdale, New York, USA
Distance from station: WSW 20mi, 33km
Updated: Thu, 02/29/2024 9:53 pm EST
Clear
Clear
 Wind from NW
Wind: NW 6 mph , 9 km/h
Temperature: 34°F , 1°C
Wind Chill: 29°F , -2°C
Dew Point: 10°F , -12°C
Humidity: 38%
Barometer: 30.42 inHg , 1030.1 hPa
Clouds: Clear
Visibility: 10 miles , 16 km
2024/03/01 02:53 KFRG 010253Z 31005KT 10SM CLR 01/M12 A3042 RMK AO1 SLP301 T00111117 51026
KBDR - Bridgeport, Connecticut, USA
Distance from station: N 23mi, 37km
Updated: Thu, 02/29/2024 9:52 pm EST
Clear
Clear
 Wind from WNW
Wind: WNW 8 mph , 13 km/h
Temperature: 32°F , 0°C
Wind Chill: 25°F , -4°C
Dew Point: 10°F , -12°C
Humidity: 40%
Barometer: 30.41 inHg , 1029.8 hPa
Clouds: Clear
Visibility: 10 miles , 16 km
2024/03/01 02:52 KBDR 010252Z 29007KT 10SM CLR 00/M12 A3041 RMK AO2 SLP297 T00001122 51025
 
KFOK - Westhampton Beac, New York, USA
Distance from station: E 23mi, 37km
Updated: Thu, 02/29/2024 9:53 pm EST
Clear
Clear
 Wind from NW
Wind: NW 8 mph , 13 km/h
Temperature: 32°F , 0°C
Wind Chill: 25°F , -4°C
Dew Point: 12°F , -11°C
Humidity: 44%
Barometer: 30.42 inHg , 1030.1 hPa
Clouds: Clear
Visibility: 10 miles , 16 km
2024/03/01 02:53 KFOK 010253Z 31007KT 10SM CLR 00/M11 A3042 RMK AO2 SLP302 T00001111 51025
KHVN - New Haven/Tweed, Connecticut, USA
Distance from station: NNE 31mi, 50km
Updated: Thu, 02/29/2024 9:53 pm EST
Clear
Clear
 Wind from varies
Wind: varies 7 mph , 11 km/h
Temperature: 36°F , 2°C
Wind Chill: 30°F , -1°C
Dew Point: 12°F , -11°C
Humidity: 38%
Barometer: 30.40 inHg , 1029.5 hPa
Clouds: Clear
Visibility: 10 miles , 16 km
2024/03/01 02:53 KHVN 010253Z VRB06KT 10SM CLR 02/M11 A3040 RMK AO2 SLP294 T00171106 51024
 
KHPN - White Plains, New York, USA
Distance from station: WNW 37mi, 60km
Updated: Thu, 02/29/2024 9:56 pm EST
Clear
Clear
 Wind from WNW
Wind: WNW 8 mph , 13 km/h
Temperature: 30°F , -1°C
Wind Chill: 22°F , -6°C
Dew Point: 12°F , -11°C
Humidity: 47%
Barometer: 30.39 inHg , 1029.1 hPa
Clouds: Clear
Visibility: 10 miles , 16 km
2024/03/01 02:56 KHPN 010256Z 30007KT 10SM CLR M01/M11 A3039 RMK AO2 SLP301 T10061111 52025
KJFK - Nyc/Jfk Arpt, New York, USA
Distance from station: WSW 40mi, 64km
Updated: Thu, 02/29/2024 9:51 pm EST
Few Clouds
Few Clouds
 Wind from NNW
Wind: NNW 12 mph , 19 km/h
Temperature: 36°F , 2°C
Wind Chill: 28°F , -2°C
Dew Point: 14°F , -10°C
Humidity: 41%
Barometer: 30.43 inHg , 1030.5 hPa
Clouds: Few Clouds
Visibility: 10 miles , 16 km
Cloud details: Few Clouds 6000 ft
2024/03/01 02:51 KJFK 010251Z 33010KT 10SM FEW060 02/M10 A3043 RMK AO2 SLP304 T00221100 53023
 
KDXR - Danbury, Connecticut, USA
Distance from station: NNW 42mi, 68km
Updated: Thu, 02/29/2024 9:53 pm EST
Clear
Clear
 Wind from WNW
Wind: WNW 5 mph , 7 km/h
Temperature: 30°F , -1°C
Wind Chill: 25°F , -4°C
Dew Point: 9°F , -13°C
Humidity: 40%
Barometer: 30.40 inHg , 1029.5 hPa
Clouds: Clear
Visibility: 10 miles , 16 km
2024/03/01 02:53 KDXR 010253Z 30004KT 10SM CLR M01/M13 A3040 RMK AO2 SLP297 T10061133 51022
KHTO - East Hampton, New York, USA
Distance from station: E 43mi, 69km
Updated: Sat, 05/21/2022 1:35 pm EDT
NOT Current
Clear
Clear
 Wind from WNW
Wind: WNW 5 mph , 7 km/h
Temperature: 81°F , 27°C
Heat Index: 83°F , 28°C
Dew Point: 66°F , 19°C
Humidity: 62%
Barometer: 30.00 inHg , 1015.9 hPa
Clouds: Clear
Visibility: 10 miles , 16 km
2022/05/21 17:35 KHTO 211735Z AUTO 30004KT 10SM CLR 27/19 A3000 RMK AO2 T02670193
 
KOXC - Oxford/Waterbury, Connecticut, USA
Distance from station: N 43mi, 70km
Updated: Thu, 02/29/2024 9:51 pm EST
Clear
Clear
 Wind from WNW
Wind: WNW 5 mph , 7 km/h
Temperature: 27°F , -3°C
Wind Chill: 21°F , -6°C
Dew Point: 10°F , -12°C
Humidity: 50%
Barometer: 30.37 inHg , 1028.4 hPa
Clouds: Clear
Visibility: 10 miles , 16 km
2024/03/01 02:51 KOXC 010251Z AUTO 30004KT 10SM CLR M03/M12 A3037 RMK AO2 SLP306 T10281122 51022 FZRANO
KLGA - Nyc/La Guardia, New York, USA
Distance from station: W 44mi, 70km
Updated: Thu, 02/29/2024 9:51 pm EST
Few Clouds
Few Clouds
 Wind from NW
Wind: NW 13 mph , 20 km/h
Temperature: 37°F , 3°C
Wind Chill: 29°F , -2°C
Dew Point: 10°F , -12°C
Humidity: 33%
Barometer: 30.42 inHg , 1030.1 hPa
Clouds: Few Clouds
Visibility: 10 miles , 16 km
Cloud details: Few Clouds 6500 ft
2024/03/01 02:51 KLGA 010251Z 31011KT 10SM FEW065 03/M12 A3042 RMK AO2 SLP301 T00281122 51026
 
KSNC - Chester, Connecticut, USA
Distance from station: NE 47mi, 76km
Updated: Thu, 02/29/2024 9:55 pm EST
Clear
Clear
 Wind from NW
Wind: NW 7 mph , 11 km/h, Gust: 13 mph , 20 km/h
Temperature: 28°F , -2°C
Wind Chill: 21°F , -6°C
Dew Point: 10°F , -12°C
Humidity: 47%
Barometer: 30.38 inHg , 1028.8 hPa
Clouds: Clear
Visibility: 10 miles , 16 km
2024/03/01 02:55 KSNC 010255Z AUTO 31006G11KT 10SM CLR M02/M12 A3038 RMK AO2
KMMK - Meriden, Connecticut, USA
Distance from station: NNE 48mi, 77km
Updated: Thu, 02/29/2024 9:53 pm EST
Clear
Clear
 Wind from NW
Wind: NW 7 mph , 11 km/h
Temperature: 30°F , -1°C
Wind Chill: 23°F , -5°C
Dew Point: 10°F , -12°C
Humidity: 43%
Barometer: 30.41 inHg , 1029.8 hPa
Clouds: Clear
Visibility: 10 miles , 16 km
2024/03/01 02:53 KMMK 010253Z AUTO 32006KT 10SM CLR M01/M12 A3041 RMK AO2 SLP298 T10111122 51025
 
KNYC - Nyc/Central Park, New York, USA
Distance from station: W 48mi, 77km
Updated: Thu, 02/29/2024 9:51 pm EST
Clear
Clear
 Wind from varies
Wind: varies 3 mph , 6 km/h
Temperature: 36°F , 2°C
Dew Point: 10°F , -12°C
Humidity: 35%
Barometer: 30.44 inHg , 1030.8 hPa
Clouds: Clear
Visibility: 10 miles , 16 km
2024/03/01 02:51 KNYC 010251Z AUTO VRB03KT 10SM CLR 02/M12 A3044 RMK AO2 SLP301 T00171117 51025